Stations météo

Publicité
Sutton bonington, Grande-Bretagne (99025): Température de l'air & dewpoint: 04.08.2020 00:00:00 - 10.08.2020 00:00:00 (BST)Sutton bonington, Grande-Bretagne (99025): Température de l'air -20cm & Température de l'air -100cm: 04.08.2020 00:00:00 - 10.08.2020 00:00:00 (BST)Sutton bonington, Grande-Bretagne (99025): Vitesse du vent & gusts: 04.08.2020 00:00:00 - 10.08.2020 00:00:00 (BST)Sutton bonington, Grande-Bretagne (99025): Direction du vent: 04.08.2020 00:00:00 - 10.08.2020 00:00:00 (BST)Sutton bonington, Grande-Bretagne (99025): Quantités de précipitations: 04.08.2020 00:00:00 - 10.08.2020 00:00:00 (BST)
Date & Time tt [°C] td [°C] tt -20cm [°C] tt -100cm [°C] ff [km/h] ff [knt] fx [km/h] fx [knt] dd rr [mm]
10.08.2020 00:00:00 - - - - - - - - - -
09.08.2020 23:00:00 17,9 15,8 - - 16 9 - - NE 0,0
09.08.2020 22:00:00 18,4 15,6 - - 16 9 - - NE 0,0
09.08.2020 21:00:00 19,4 15,7 - - 15 8 - - NE 0,0
09.08.2020 20:00:00 20,8 16,0 - - 15 8 - - NE 0,0
09.08.2020 19:00:00 21,4 16,0 - - 16 9 - - NE 0,0
09.08.2020 18:00:00 21,5 16,1 - - 16 9 - - NNE 0,0
09.08.2020 17:00:00 22,2 16,4 - - 18 10 - - NE 0,0
09.08.2020 16:00:00 21,7 15,6 - - 15 8 - - NE 0,0
09.08.2020 15:00:00 21,4 15,7 - - 21 11 - - NE 0,0
09.08.2020 14:00:00 20,6 15,5 - - 18 10 - - NE 0,0
09.08.2020 13:00:00 19,5 15,2 - - 18 10 - - ENE 0,0
09.08.2020 12:00:00 17,7 14,7 - - 18 10 - - NE 0,0
09.08.2020 11:00:00 16,7 14,6 - - 16 9 - - NE 0,0
09.08.2020 10:00:00 15,9 14,4 19,2 18,4 18 10 - - NE 0,0
09.08.2020 09:00:00 15,3 14,0 - - 16 9 - - NE 0,0
09.08.2020 08:00:00 14,9 13,8 - - 24 13 - - NE 0,0
09.08.2020 07:00:00 15,0 13,7 - - 22 12 - - NE 0,0
09.08.2020 06:00:00 15,0 13,7 - - 21 11 - - NE 0,0
09.08.2020 05:00:00 15,0 13,8 - - 22 12 - - NE 0,0
09.08.2020 04:00:00 15,2 13,9 - - 16 9 - - NE 0,0
09.08.2020 03:00:00 15,2 13,8 - - 13 7 - - NE 0,0
09.08.2020 02:00:00 15,2 13,6 - - 16 9 - - NE 0,0
09.08.2020 01:00:00 15,5 13,4 - - 18 10 - - NE 0,0
09.08.2020 00:00:00 15,8 13,5 - - 26 14 - - NE 0,0
08.08.2020 23:00:00 16,3 13,8 - - 16 9 - - NE 0,0
08.08.2020 22:00:00 16,6 13,9 - - 24 13 - - NE 0,0
08.08.2020 21:00:00 18,6 13,5 - - 18 10 - - NE 0,0
08.08.2020 20:00:00 20,8 12,9 - - 21 11 - - NE 0,0
08.08.2020 19:00:00 22,5 13,1 - - 22 12 - - NE 0,0
08.08.2020 18:00:00 24,4 14,3 - - 22 12 - - ENE 0,0
08.08.2020 17:00:00 25,5 15,3 - - 24 13 - - ENE 0,0
08.08.2020 16:00:00 26,0 15,7 - - 21 11 - - ENE 0,0
08.08.2020 15:00:00 26,0 16,4 - - 18 10 - - NE 0,0
08.08.2020 14:00:00 25,9 17,1 - - 21 11 - - NE 0,0
08.08.2020 13:00:00 24,9 16,6 - - 18 10 - - NE 0,0
08.08.2020 12:00:00 24,2 16,7 - - 18 10 - - NE 0,0
08.08.2020 11:00:00 23,5 16,6 - - 16 9 - - NE 0,0
08.08.2020 10:00:00 22,2 16,6 19,0 18,0 15 8 - - NNE 0,0
08.08.2020 09:00:00 20,6 15,9 - - 9 5 - - NNE 0,0
08.08.2020 08:00:00 19,6 16,0 - - 8 4 - - N 0,0
08.08.2020 07:00:00 18,0 15,8 - - 4 2 - - NNW 0,0
08.08.2020 06:00:00 17,8 15,6 - - 8 4 - - NNW 0,0
08.08.2020 05:00:00 17,6 16,0 - - 4 2 - - NW 0,0
08.08.2020 04:00:00 19,0 16,6 - - 8 4 - - N 0,0
08.08.2020 03:00:00 18,9 17,8 - - 5 3 - - NNW 0,0
08.08.2020 02:00:00 19,2 18,1 - - 4 2 - - NNW 0,0
08.08.2020 01:00:00 20,5 18,0 - - 2 1 - - NNW 0,2
08.08.2020 00:00:00 20,7 17,1 - - 5 3 - - WNW 0,0
07.08.2020 23:00:00 22,1 17,5 - - 8 4 - - WNW 0,0
07.08.2020 22:00:00 22,7 16,8 - - 8 4 - - W 0,0
07.08.2020 21:00:00 25,1 15,6 - - 5 3 - - S 0,0
07.08.2020 20:00:00 26,3 15,0 - - 4 2 - - SW 0,0
07.08.2020 19:00:00 27,4 14,7 - - 5 3 - - WSW 0,0
07.08.2020 18:00:00 29,9 15,7 - - 8 4 - - W 0,0
07.08.2020 17:00:00 28,8 14,9 - - 11 6 - - SW 0,0
07.08.2020 16:00:00 28,4 14,7 - - 8 4 - - SW 0,0
07.08.2020 15:00:00 27,6 14,5 - - 9 5 - - SW 0,0
07.08.2020 14:00:00 27,4 13,2 - - 9 5 - - WSW 0,0
07.08.2020 13:00:00 28,2 13,0 - - 9 5 - - SW 0,0
07.08.2020 12:00:00 26,9 16,3 - - 11 6 - - SSW 0,0
07.08.2020 11:00:00 25,9 17,0 - - 5 3 - - S 0,0
07.08.2020 10:00:00 23,8 17,8 18,2 17,7 4 2 - - SW 0,0
07.08.2020 09:00:00 21,3 18,1 - - 4 2 - - WSW 0,0
07.08.2020 08:00:00 19,4 17,4 - - 4 2 - - S 0,0
07.08.2020 07:00:00 17,5 16,9 - - 2 1 - - SE 0,0
07.08.2020 06:00:00 16,2 15,7 - - 4 2 - - SSE 0,0
07.08.2020 05:00:00 17,0 16,2 - - 8 4 - - SSE 0,0
07.08.2020 04:00:00 17,7 16,6 - - 8 4 - - SSE 0,0
07.08.2020 03:00:00 17,8 16,5 - - 9 5 - - SSE 0,0
07.08.2020 02:00:00 17,6 16,6 - - 5 3 - - SSE 0,0
07.08.2020 01:00:00 18,1 16,4 - - 5 3 - - SSE 0,0
07.08.2020 00:00:00 19,2 16,9 - - 5 3 - - SE 0,0
06.08.2020 23:00:00 20,6 17,5 - - 8 4 - - S 0,0
06.08.2020 22:00:00 20,6 17,6 - - 5 3 - - SSW 0,0
06.08.2020 21:00:00 21,9 18,0 - - 9 5 - - S 0,0
06.08.2020 20:00:00 22,7 18,5 - - 8 4 - - S 0,0
06.08.2020 19:00:00 23,6 18,8 - - 13 7 - - S 0,0
06.08.2020 18:00:00 22,9 19,6 - - 9 5 - - SSW 0,0
06.08.2020 17:00:00 21,5 19,8 - - 9 5 - - SSW 0,2
06.08.2020 16:00:00 23,5 17,9 - - 15 8 - - S 0,0
06.08.2020 15:00:00 23,3 17,1 - - 11 6 - - SW 0,0
06.08.2020 14:00:00 24,1 17,4 - - 11 6 - - SSW 0,0
06.08.2020 13:00:00 23,7 15,9 - - 13 7 - - S 0,0
06.08.2020 12:00:00 22,0 15,3 - - 11 6 - - S 0,0
06.08.2020 11:00:00 20,9 16,4 - - 11 6 - - S 0,0
06.08.2020 10:00:00 19,6 15,1 17,7 17,7 11 6 - - SSW 0,0
06.08.2020 09:00:00 18,5 15,0 - - 9 5 - - SW 0,0
06.08.2020 08:00:00 17,8 15,3 - - 8 4 - - SSW 0,0
06.08.2020 07:00:00 17,4 15,7 - - 5 3 - - S 0,0
06.08.2020 06:00:00 17,2 15,6 - - 8 4 - - SW 0,0
06.08.2020 05:00:00 17,3 15,7 - - 9 5 - - SW 0,0
06.08.2020 04:00:00 16,9 15,6 - - 4 2 - - S 0,0
06.08.2020 03:00:00 17,9 15,8 - - 8 4 - - WSW 0,0
06.08.2020 02:00:00 18,4 16,0 - - 8 4 - - SSW 0,0
06.08.2020 01:00:00 18,6 16,1 - - 11 6 - - SSW 0,0
06.08.2020 00:00:00 18,7 16,0 - - 9 5 - - SSW 0,0
05.08.2020 23:00:00 18,8 15,7 - - 9 5 - - S 0,0
05.08.2020 22:00:00 19,1 15,5 - - 11 6 - - SSW 0,0
05.08.2020 21:00:00 19,8 15,4 - - 13 7 - - SSW 0,0
05.08.2020 20:00:00 20,5 15,2 - - 16 9 - - S 0,0
05.08.2020 19:00:00 21,7 15,1 - - 16 9 - - SSW 0,0
05.08.2020 18:00:00 21,6 14,9 - - 13 7 - - SSW 0,0
05.08.2020 17:00:00 21,7 14,5 - - 16 9 - - SSW 0,0
05.08.2020 16:00:00 21,5 14,4 - - 16 9 - - SSW 0,0
05.08.2020 15:00:00 22,3 14,1 - - 21 11 - - S 0,0
05.08.2020 14:00:00 22,5 14,5 - - 18 10 - - SSW 0,0
05.08.2020 13:00:00 23,3 14,0 - - 22 12 50 27 SSW 0,0
05.08.2020 12:00:00 23,3 13,9 - - 22 12 - - SW 0,0
05.08.2020 11:00:00 21,8 14,8 - - 21 11 - - SSW 0,0
05.08.2020 10:00:00 19,3 14,7 17,2 17,7 18 10 - - SW 0,0
05.08.2020 09:00:00 18,5 14,6 - - 15 8 - - SSW 0,0
05.08.2020 08:00:00 18,0 14,3 - - 15 8 - - SSW 0,0
05.08.2020 07:00:00 17,5 14,3 - - 15 8 - - SSW 0,0
05.08.2020 06:00:00 16,6 14,2 - - 13 7 - - SW 0,0
05.08.2020 05:00:00 16,9 14,2 - - 18 10 - - SSW 0,0
05.08.2020 04:00:00 17,1 14,3 - - 13 7 - - SSW 0,0
05.08.2020 03:00:00 16,7 14,1 - - 13 7 - - SSW 0,0
05.08.2020 02:00:00 17,0 13,9 - - 15 8 - - SSW 0,0
05.08.2020 01:00:00 17,3 13,6 - - 15 8 - - SSW 0,0
05.08.2020 00:00:00 17,4 13,7 - - 15 8 - - SSW 0,0
04.08.2020 23:00:00 17,7 13,5 - - 16 9 - - SW 0,0
04.08.2020 22:00:00 18,3 12,9 - - 16 9 - - S 0,0
04.08.2020 21:00:00 18,6 12,5 - - 18 10 - - SW 0,0
04.08.2020 20:00:00 19,1 11,9 - - 18 10 - - SSW 0,0
04.08.2020 19:00:00 19,3 11,6 - - 16 9 - - SSW 0,0
04.08.2020 18:00:00 19,6 11,0 - - 18 10 - - SSW 0,0
04.08.2020 17:00:00 19,5 10,0 - - 18 10 - - SSW 0,0
04.08.2020 16:00:00 19,5 9,5 - - 15 8 - - SSW 0,0
04.08.2020 15:00:00 19,1 9,6 - - 16 9 - - SSW 0,0
04.08.2020 14:00:00 17,0 9,2 - - 13 7 - - SSW 0,0
04.08.2020 13:00:00 16,4 8,3 - - 13 7 - - SSW 0,0
04.08.2020 12:00:00 15,4 8,8 - - 11 6 - - SSW 0,0
04.08.2020 11:00:00 15,3 7,6 - - 11 6 - - SW 0,0
04.08.2020 10:00:00 15,5 8,1 17,2 18,0 11 6 - - SSW 0,0
04.08.2020 09:00:00 13,9 9,6 - - 5 3 - - S 0,0
04.08.2020 08:00:00 12,3 9,6 - - 4 2 - - SE 0,0
04.08.2020 07:00:00 9,8 9,4 - - 4 2 - - S 0,0
04.08.2020 06:00:00 7,3 7,1 - - 0 0 - - N 0,0
04.08.2020 05:00:00 7,1 6,8 - - 0 0 - - N 0,0
04.08.2020 04:00:00 7,2 6,7 - - 2 1 - - SW 0,0
04.08.2020 03:00:00 7,7 7,1 - - 2 1 - - SW 0,0
04.08.2020 02:00:00 8,3 7,2 - - 4 2 - - SW 0,0
04.08.2020 01:00:00 9,8 8,0 - - 4 2 - - W 0,0
04.08.2020 00:00:00 10,4 9,5 - - 2 1 - - WSW 0,0

tt = Température de l'air
td = dewpoint
tt -20cm = Température de l'air -20cm
tt -100cm = Température de l'air -100cm
ff = Vitesse du vent
fx = gusts
dd = Direction du vent
rr = Quantités de précipitations

stations d'obs. à proximité